sensor_id;sensor_type;location;lat;lon;timestamp;P1;durP1;ratioP1;P2;durP2;ratioP2
33690;SDS011;20026;50.058;18.428;2023-06-01T00:00:58;28.38;;;11.60;;
33690;SDS011;20026;50.058;18.428;2023-06-01T00:03:27;32.15;;;13.23;;
33690;SDS011;20026;50.058;18.428;2023-06-01T00:05:54;31.65;;;14.05;;
33690;SDS011;20026;50.058;18.428;2023-06-01T00:08:22;32.88;;;13.80;;
33690;SDS011;20026;50.058;18.428;2023-06-01T00:10:48;27.50;;;12.90;;
33690;SDS011;20026;50.058;18.428;2023-06-01T00:13:15;30.73;;;13.18;;
33690;SDS011;20026;50.058;18.428;2023-06-01T00:15:42;32.75;;;14.18;;
33690;SDS011;20026;50.058;18.428;2023-06-01T00:18:09;25.17;;;11.98;;
33690;SDS011;20026;50.058;18.428;2023-06-01T00:20:37;30.42;;;13.02;;
33690;SDS011;20026;50.058;18.428;2023-06-01T00:23:04;31.75;;;13.45;;
33690;SDS011;20026;50.058;18.428;2023-06-01T00:25:31;25.33;;;11.93;;
33690;SDS011;20026;50.058;18.428;2023-06-01T00:27:58;23.42;;;10.77;;
33690;SDS011;20026;50.058;18.428;2023-06-01T00:30:24;18.15;;;9.02;;
33690;SDS011;20026;50.058;18.428;2023-06-01T00:33:10;19.02;;;9.80;;
33690;SDS011;20026;50.058;18.428;2023-06-01T00:35:37;20.02;;;9.43;;
33690;SDS011;20026;50.058;18.428;2023-06-01T00:38:04;19.55;;;9.70;;
33690;SDS011;20026;50.058;18.428;2023-06-01T00:40:31;19.38;;;9.45;;
33690;SDS011;20026;50.058;18.428;2023-06-01T00:42:58;20.25;;;9.32;;
33690;SDS011;20026;50.058;18.428;2023-06-01T00:45:24;19.20;;;9.30;;
33690;SDS011;20026;50.058;18.428;2023-06-01T00:47:51;19.00;;;9.38;;
33690;SDS011;20026;50.058;18.428;2023-06-01T00:50:18;21.17;;;9.57;;
33690;SDS011;20026;50.058;18.428;2023-06-01T00:52:45;19.38;;;8.95;;
33690;SDS011;20026;50.058;18.428;2023-06-01T00:55:12;15.70;;;8.38;;
33690;SDS011;20026;50.058;18.428;2023-06-01T00:57:39;18.35;;;8.95;;
33690;SDS011;20026;50.058;18.428;2023-06-01T01:00:07;15.63;;;8.65;;
33690;SDS011;20026;50.058;18.428;2023-06-01T01:02:38;35.65;;;17.55;;
33690;SDS011;20026;50.058;18.428;2023-06-01T01:05:06;21.67;;;11.65;;
33690;SDS011;20026;50.058;18.428;2023-06-01T01:10:18;16.38;;;9.63;;
33690;SDS011;20026;50.058;18.428;2023-06-01T01:18:39;20.08;;;10.18;;
33690;SDS011;20026;50.058;18.428;2023-06-01T01:21:06;24.90;;;11.23;;
33690;SDS011;20026;50.058;18.428;2023-06-01T01:23:55;25.63;;;12.02;;
33690;SDS011;20026;50.058;18.428;2023-06-01T01:29:06;24.15;;;11.95;;
33690;SDS011;20026;50.058;18.428;2023-06-01T01:31:34;29.80;;;15.23;;
33690;SDS011;20026;50.058;18.428;2023-06-01T01:34:01;26.05;;;13.57;;
33690;SDS011;20026;50.058;18.428;2023-06-01T01:36:28;28.75;;;14.70;;
33690;SDS011;20026;50.058;18.428;2023-06-01T01:38:55;28.38;;;14.50;;
33690;SDS011;20026;50.058;18.428;2023-06-01T01:41:22;31.90;;;17.25;;
33690;SDS011;20026;50.058;18.428;2023-06-01T01:43:48;42.03;;;23.67;;
33690;SDS011;20026;50.058;18.428;2023-06-01T01:46:21;34.65;;;17.58;;
33690;SDS011;20026;50.058;18.428;2023-06-01T01:51:49;31.98;;;17.08;;
33690;SDS011;20026;50.058;18.428;2023-06-01T01:54:16;25.70;;;14.23;;
33690;SDS011;20026;50.058;18.428;2023-06-01T01:56:44;21.85;;;12.43;;
33690;SDS011;20026;50.058;18.428;2023-06-01T01:59:12;22.33;;;12.10;;
33690;SDS011;20026;50.058;18.428;2023-06-01T02:01:39;21.48;;;11.82;;
33690;SDS011;20026;50.058;18.428;2023-06-01T02:04:09;21.42;;;10.85;;
33690;SDS011;20026;50.058;18.428;2023-06-01T02:06:36;21.33;;;10.13;;
33690;SDS011;20026;50.058;18.428;2023-06-01T02:09:03;20.70;;;10.70;;
33690;SDS011;20026;50.058;18.428;2023-06-01T02:13:59;15.70;;;9.43;;
33690;SDS011;20026;50.058;18.428;2023-06-01T02:16:25;19.15;;;8.95;;
33690;SDS011;20026;50.058;18.428;2023-06-01T02:18:52;14.63;;;9.15;;
33690;SDS011;20026;50.058;18.428;2023-06-01T02:21:19;15.68;;;8.32;;
33690;SDS011;20026;50.058;18.428;2023-06-01T02:23:46;16.27;;;8.25;;
33690;SDS011;20026;50.058;18.428;2023-06-01T02:26:12;13.85;;;7.97;;
33690;SDS011;20026;50.058;18.428;2023-06-01T02:28:39;16.40;;;7.90;;
33690;SDS011;20026;50.058;18.428;2023-06-01T02:33:35;17.25;;;8.10;;
33690;SDS011;20026;50.058;18.428;2023-06-01T02:36:03;15.82;;;7.47;;
33690;SDS011;20026;50.058;18.428;2023-06-01T02:38:30;13.10;;;7.03;;
33690;SDS011;20026;50.058;18.428;2023-06-01T02:40:56;20.85;;;8.25;;
33690;SDS011;20026;50.058;18.428;2023-06-01T02:43:23;15.60;;;8.32;;
33690;SDS011;20026;50.058;18.428;2023-06-01T02:45:53;17.63;;;7.47;;
33690;SDS011;20026;50.058;18.428;2023-06-01T02:48:22;11.63;;;7.25;;
33690;SDS011;20026;50.058;18.428;2023-06-01T02:50:49;14.15;;;6.72;;
33690;SDS011;20026;50.058;18.428;2023-06-01T02:53:15;13.52;;;7.90;;
33690;SDS011;20026;50.058;18.428;2023-06-01T02:55:42;10.93;;;6.38;;
33690;SDS011;20026;50.058;18.428;2023-06-01T02:58:10;16.27;;;7.45;;
33690;SDS011;20026;50.058;18.428;2023-06-01T03:00:44;14.55;;;6.63;;
33690;SDS011;20026;50.058;18.428;2023-06-01T03:03:10;24.98;;;8.90;;
33690;SDS011;20026;50.058;18.428;2023-06-01T03:05:37;25.40;;;8.57;;
33690;SDS011;20026;50.058;18.428;2023-06-01T03:08:04;21.58;;;8.70;;
33690;SDS011;20026;50.058;18.428;2023-06-01T03:10:31;27.48;;;8.93;;
33690;SDS011;20026;50.058;18.428;2023-06-01T03:12:58;27.90;;;10.02;;
33690;SDS011;20026;50.058;18.428;2023-06-01T03:15:27;19.50;;;8.93;;
33690;SDS011;20026;50.058;18.428;2023-06-01T03:17:55;14.65;;;8.30;;
33690;SDS011;20026;50.058;18.428;2023-06-01T03:20:22;12.32;;;7.50;;
33690;SDS011;20026;50.058;18.428;2023-06-01T03:22:48;11.10;;;6.22;;
33690;SDS011;20026;50.058;18.428;2023-06-01T03:25:16;13.18;;;6.15;;
33690;SDS011;20026;50.058;18.428;2023-06-01T03:27:42;10.90;;;7.03;;
33690;SDS011;20026;50.058;18.428;2023-06-01T03:30:09;16.52;;;7.40;;
33690;SDS011;20026;50.058;18.428;2023-06-01T03:32:37;15.15;;;8.10;;
33690;SDS011;20026;50.058;18.428;2023-06-01T03:35:07;14.10;;;7.88;;
33690;SDS011;20026;50.058;18.428;2023-06-01T03:37:34;16.73;;;7.60;;
33690;SDS011;20026;50.058;18.428;2023-06-01T03:40:01;15.65;;;8.70;;
33690;SDS011;20026;50.058;18.428;2023-06-01T03:42:38;15.77;;;8.45;;
33690;SDS011;20026;50.058;18.428;2023-06-01T03:47:36;19.23;;;8.75;;
33690;SDS011;20026;50.058;18.428;2023-06-01T03:50:07;15.27;;;8.98;;
33690;SDS011;20026;50.058;18.428;2023-06-01T03:52:34;23.80;;;9.60;;
33690;SDS011;20026;50.058;18.428;2023-06-01T03:55:06;16.73;;;10.00;;
33690;SDS011;20026;50.058;18.428;2023-06-01T03:57:38;20.92;;;10.32;;
33690;SDS011;20026;50.058;18.428;2023-06-01T04:00:05;17.17;;;9.40;;
33690;SDS011;20026;50.058;18.428;2023-06-01T04:02:46;16.58;;;9.13;;
33690;SDS011;20026;50.058;18.428;2023-06-01T04:05:17;15.50;;;8.45;;
33690;SDS011;20026;50.058;18.428;2023-06-01T04:07:44;19.92;;;8.40;;
33690;SDS011;20026;50.058;18.428;2023-06-01T04:10:12;21.27;;;8.68;;
33690;SDS011;20026;50.058;18.428;2023-06-01T04:12:45;16.20;;;7.53;;
33690;SDS011;20026;50.058;18.428;2023-06-01T04:15:14;15.90;;;7.80;;
33690;SDS011;20026;50.058;18.428;2023-06-01T04:17:42;18.10;;;7.40;;
33690;SDS011;20026;50.058;18.428;2023-06-01T04:20:09;11.82;;;6.82;;
33690;SDS011;20026;50.058;18.428;2023-06-01T04:22:38;13.45;;;6.88;;
33690;SDS011;20026;50.058;18.428;2023-06-01T04:25:05;13.88;;;7.10;;
33690;SDS011;20026;50.058;18.428;2023-06-01T04:27:37;16.55;;;6.70;;
33690;SDS011;20026;50.058;18.428;2023-06-01T04:30:13;13.63;;;6.90;;
33690;SDS011;20026;50.058;18.428;2023-06-01T04:32:50;25.67;;;7.13;;
33690;SDS011;20026;50.058;18.428;2023-06-01T04:35:23;9.80;;;6.35;;
33690;SDS011;20026;50.058;18.428;2023-06-01T04:37:52;12.57;;;6.05;;
33690;SDS011;20026;50.058;18.428;2023-06-01T04:40:20;14.65;;;5.95;;
33690;SDS011;20026;50.058;18.428;2023-06-01T04:43:01;11.05;;;5.25;;
33690;SDS011;20026;50.058;18.428;2023-06-01T04:45:48;9.02;;;5.20;;
33690;SDS011;20026;50.058;18.428;2023-06-01T04:48:14;16.05;;;5.45;;
33690;SDS011;20026;50.058;18.428;2023-06-01T04:50:41;9.68;;;4.90;;
33690;SDS011;20026;50.058;18.428;2023-06-01T04:53:09;11.45;;;4.95;;
33690;SDS011;20026;50.058;18.428;2023-06-01T04:55:35;9.32;;;4.53;;
33690;SDS011;20026;50.058;18.428;2023-06-01T04:58:20;9.27;;;5.05;;
33690;SDS011;20026;50.058;18.428;2023-06-01T05:00:47;10.95;;;4.20;;
33690;SDS011;20026;50.058;18.428;2023-06-01T05:03:13;8.57;;;4.35;;
33690;SDS011;20026;50.058;18.428;2023-06-01T05:05:44;9.75;;;4.65;;
33690;SDS011;20026;50.058;18.428;2023-06-01T05:08:11;8.15;;;4.75;;
33690;SDS011;20026;50.058;18.428;2023-06-01T05:10:37;14.60;;;4.75;;
33690;SDS011;20026;50.058;18.428;2023-06-01T05:13:04;7.43;;;4.10;;
33690;SDS011;20026;50.058;18.428;2023-06-01T05:15:30;9.50;;;4.13;;
33690;SDS011;20026;50.058;18.428;2023-06-01T05:17:56;9.32;;;4.68;;
33690;SDS011;20026;50.058;18.428;2023-06-01T05:20:23;8.40;;;4.22;;
33690;SDS011;20026;50.058;18.428;2023-06-01T05:22:50;7.93;;;4.13;;
33690;SDS011;20026;50.058;18.428;2023-06-01T05:25:16;9.95;;;4.32;;
33690;SDS011;20026;50.058;18.428;2023-06-01T05:27:43;7.55;;;4.03;;
33690;SDS011;20026;50.058;18.428;2023-06-01T05:32:39;10.77;;;4.22;;
33690;SDS011;20026;50.058;18.428;2023-06-01T05:35:05;9.32;;;3.97;;
33690;SDS011;20026;50.058;18.428;2023-06-01T05:37:32;7.85;;;4.57;;
33690;SDS011;20026;50.058;18.428;2023-06-01T05:39:59;10.50;;;3.72;;
33690;SDS011;20026;50.058;18.428;2023-06-01T05:42:44;5.85;;;3.70;;
33690;SDS011;20026;50.058;18.428;2023-06-01T05:45:10;7.37;;;3.80;;
33690;SDS011;20026;50.058;18.428;2023-06-01T05:47:37;10.02;;;3.60;;
33690;SDS011;20026;50.058;18.428;2023-06-01T05:50:04;11.60;;;3.78;;
33690;SDS011;20026;50.058;18.428;2023-06-01T05:52:31;6.72;;;3.50;;
33690;SDS011;20026;50.058;18.428;2023-06-01T05:55:04;7.90;;;3.28;;
33690;SDS011;20026;50.058;18.428;2023-06-01T05:57:31;11.13;;;4.13;;
33690;SDS011;20026;50.058;18.428;2023-06-01T05:59:57;6.65;;;3.42;;
33690;SDS011;20026;50.058;18.428;2023-06-01T06:02:23;10.77;;;3.72;;
33690;SDS011;20026;50.058;18.428;2023-06-01T06:04:52;8.00;;;3.45;;
33690;SDS011;20026;50.058;18.428;2023-06-01T06:07:20;12.00;;;3.65;;
33690;SDS011;20026;50.058;18.428;2023-06-01T06:10:05;7.50;;;3.20;;
33690;SDS011;20026;50.058;18.428;2023-06-01T06:12:54;8.85;;;3.13;;
33690;SDS011;20026;50.058;18.428;2023-06-01T06:15:21;6.82;;;3.13;;
33690;SDS011;20026;50.058;18.428;2023-06-01T06:18:10;6.32;;;3.10;;
33690;SDS011;20026;50.058;18.428;2023-06-01T06:20:37;9.93;;;3.45;;
33690;SDS011;20026;50.058;18.428;2023-06-01T06:23:04;13.50;;;4.68;;
33690;SDS011;20026;50.058;18.428;2023-06-01T06:25:30;11.00;;;3.42;;
33690;SDS011;20026;50.058;18.428;2023-06-01T06:27:57;7.22;;;3.63;;
33690;SDS011;20026;50.058;18.428;2023-06-01T06:30:24;4.93;;;3.28;;
33690;SDS011;20026;50.058;18.428;2023-06-01T06:32:50;7.90;;;3.53;;
33690;SDS011;20026;50.058;18.428;2023-06-01T06:35:38;5.75;;;3.22;;
33690;SDS011;20026;50.058;18.428;2023-06-01T06:38:08;7.45;;;3.70;;
33690;SDS011;20026;50.058;18.428;2023-06-01T06:40:34;11.80;;;3.53;;
33690;SDS011;20026;50.058;18.428;2023-06-01T06:43:00;9.38;;;3.13;;
33690;SDS011;20026;50.058;18.428;2023-06-01T06:45:27;11.48;;;4.07;;
33690;SDS011;20026;50.058;18.428;2023-06-01T06:47:53;9.68;;;3.20;;
33690;SDS011;20026;50.058;18.428;2023-06-01T06:50:23;8.02;;;3.42;;
33690;SDS011;20026;50.058;18.428;2023-06-01T06:53:10;10.05;;;3.55;;
33690;SDS011;20026;50.058;18.428;2023-06-01T06:55:37;6.25;;;3.40;;
33690;SDS011;20026;50.058;18.428;2023-06-01T06:58:04;11.45;;;3.92;;
33690;SDS011;20026;50.058;18.428;2023-06-01T07:00:33;6.20;;;2.88;;
33690;SDS011;20026;50.058;18.428;2023-06-01T07:03:02;9.23;;;3.20;;
33690;SDS011;20026;50.058;18.428;2023-06-01T07:05:29;15.95;;;3.40;;
33690;SDS011;20026;50.058;18.428;2023-06-01T07:07:55;8.82;;;3.88;;
33690;SDS011;20026;50.058;18.428;2023-06-01T07:10:22;6.00;;;3.60;;
33690;SDS011;20026;50.058;18.428;2023-06-01T07:12:48;6.00;;;3.20;;
33690;SDS011;20026;50.058;18.428;2023-06-01T07:15:14;8.00;;;3.10;;
33690;SDS011;20026;50.058;18.428;2023-06-01T07:17:41;10.30;;;3.33;;
33690;SDS011;20026;50.058;18.428;2023-06-01T07:20:08;11.93;;;3.28;;
33690;SDS011;20026;50.058;18.428;2023-06-01T07:22:43;8.57;;;2.88;;
33690;SDS011;20026;50.058;18.428;2023-06-01T07:25:10;6.78;;;2.33;;
33690;SDS011;20026;50.058;18.428;2023-06-01T07:27:38;7.72;;;3.22;;
33690;SDS011;20026;50.058;18.428;2023-06-01T07:30:10;7.13;;;2.63;;
33690;SDS011;20026;50.058;18.428;2023-06-01T07:32:37;8.23;;;2.70;;
33690;SDS011;20026;50.058;18.428;2023-06-01T07:35:05;6.95;;;3.40;;
33690;SDS011;20026;50.058;18.428;2023-06-01T07:37:34;6.13;;;2.70;;
33690;SDS011;20026;50.058;18.428;2023-06-01T07:40:00;7.03;;;2.53;;
33690;SDS011;20026;50.058;18.428;2023-06-01T07:42:26;6.40;;;2.97;;
33690;SDS011;20026;50.058;18.428;2023-06-01T07:44:53;6.82;;;2.75;;
33690;SDS011;20026;50.058;18.428;2023-06-01T07:47:20;5.28;;;3.33;;
33690;SDS011;20026;50.058;18.428;2023-06-01T07:49:48;6.80;;;3.00;;
33690;SDS011;20026;50.058;18.428;2023-06-01T07:52:14;5.57;;;3.00;;
33690;SDS011;20026;50.058;18.428;2023-06-01T07:54:45;6.82;;;3.42;;
33690;SDS011;20026;50.058;18.428;2023-06-01T07:57:34;8.77;;;3.25;;
33690;SDS011;20026;50.058;18.428;2023-06-01T08:00:03;7.60;;;2.80;;
33690;SDS011;20026;50.058;18.428;2023-06-01T08:02:38;6.15;;;2.67;;
33690;SDS011;20026;50.058;18.428;2023-06-01T08:05:05;6.82;;;3.05;;
33690;SDS011;20026;50.058;18.428;2023-06-01T08:07:32;7.60;;;2.45;;
33690;SDS011;20026;50.058;18.428;2023-06-01T08:09:58;5.55;;;2.63;;
33690;SDS011;20026;50.058;18.428;2023-06-01T08:12:25;9.18;;;2.92;;
33690;SDS011;20026;50.058;18.428;2023-06-01T08:14:51;9.23;;;3.08;;
33690;SDS011;20026;50.058;18.428;2023-06-01T08:17:23;3.95;;;2.40;;
33690;SDS011;20026;50.058;18.428;2023-06-01T08:19:49;6.72;;;2.03;;
33690;SDS011;20026;50.058;18.428;2023-06-01T08:22:22;6.03;;;2.33;;
33690;SDS011;20026;50.058;18.428;2023-06-01T08:25:09;8.13;;;2.70;;
33690;SDS011;20026;50.058;18.428;2023-06-01T08:27:35;4.97;;;2.70;;
33690;SDS011;20026;50.058;18.428;2023-06-01T08:30:02;9.20;;;2.60;;
33690;SDS011;20026;50.058;18.428;2023-06-01T08:32:30;5.88;;;2.20;;
33690;SDS011;20026;50.058;18.428;2023-06-01T08:34:58;5.50;;;2.00;;
33690;SDS011;20026;50.058;18.428;2023-06-01T08:37:28;4.70;;;2.00;;
33690;SDS011;20026;50.058;18.428;2023-06-01T08:39:55;3.78;;;2.15;;
33690;SDS011;20026;50.058;18.428;2023-06-01T08:42:34;8.57;;;2.45;;
33690;SDS011;20026;50.058;18.428;2023-06-01T08:45:16;8.88;;;2.80;;
33690;SDS011;20026;50.058;18.428;2023-06-01T08:47:43;6.60;;;2.20;;
33690;SDS011;20026;50.058;18.428;2023-06-01T08:50:16;6.17;;;2.80;;
33690;SDS011;20026;50.058;18.428;2023-06-01T08:52:43;11.95;;;5.88;;
33690;SDS011;20026;50.058;18.428;2023-06-01T08:55:10;4.90;;;3.80;;
33690;SDS011;20026;50.058;18.428;2023-06-01T08:57:39;4.35;;;2.15;;
33690;SDS011;20026;50.058;18.428;2023-06-01T09:00:10;5.38;;;3.65;;
33690;SDS011;20026;50.058;18.428;2023-06-01T09:02:38;5.25;;;2.42;;
33690;SDS011;20026;50.058;18.428;2023-06-01T09:05:11;6.30;;;2.10;;
33690;SDS011;20026;50.058;18.428;2023-06-01T09:07:39;3.15;;;2.25;;
33690;SDS011;20026;50.058;18.428;2023-06-01T09:10:05;5.75;;;2.38;;
33690;SDS011;20026;50.058;18.428;2023-06-01T09:12:32;2.42;;;1.98;;
33690;SDS011;20026;50.058;18.428;2023-06-01T09:15:10;7.22;;;2.22;;
33690;SDS011;20026;50.058;18.428;2023-06-01T09:17:37;4.35;;;1.98;;
33690;SDS011;20026;50.058;18.428;2023-06-01T09:20:04;4.13;;;2.75;;
33690;SDS011;20026;50.058;18.428;2023-06-01T09:22:47;3.65;;;2.30;;
33690;SDS011;20026;50.058;18.428;2023-06-01T09:25:14;6.93;;;3.10;;
33690;SDS011;20026;50.058;18.428;2023-06-01T09:27:44;6.40;;;2.08;;
33690;SDS011;20026;50.058;18.428;2023-06-01T09:30:11;15.95;;;10.18;;
33690;SDS011;20026;50.058;18.428;2023-06-01T09:32:38;4.72;;;3.13;;
33690;SDS011;20026;50.058;18.428;2023-06-01T09:35:05;7.20;;;2.80;;
33690;SDS011;20026;50.058;18.428;2023-06-01T09:37:33;7.63;;;3.10;;
33690;SDS011;20026;50.058;18.428;2023-06-01T09:40:00;15.95;;;4.07;;
33690;SDS011;20026;50.058;18.428;2023-06-01T09:42:33;8.70;;;2.15;;
33690;SDS011;20026;50.058;18.428;2023-06-01T09:45:20;3.05;;;2.60;;
33690;SDS011;20026;50.058;18.428;2023-06-01T09:47:50;4.38;;;2.25;;
33690;SDS011;20026;50.058;18.428;2023-06-01T09:50:36;3.33;;;1.80;;
33690;SDS011;20026;50.058;18.428;2023-06-01T09:53:03;4.35;;;2.00;;
33690;SDS011;20026;50.058;18.428;2023-06-01T09:55:32;5.60;;;2.40;;
33690;SDS011;20026;50.058;18.428;2023-06-01T09:58:20;7.75;;;2.90;;
33690;SDS011;20026;50.058;18.428;2023-06-01T10:01:06;9.07;;;2.38;;
33690;SDS011;20026;50.058;18.428;2023-06-01T10:03:39;8.30;;;2.97;;
33690;SDS011;20026;50.058;18.428;2023-06-01T10:06:07;6.95;;;2.38;;
33690;SDS011;20026;50.058;18.428;2023-06-01T10:08:33;9.35;;;4.93;;
33690;SDS011;20026;50.058;18.428;2023-06-01T10:11:00;6.18;;;2.88;;
33690;SDS011;20026;50.058;18.428;2023-06-01T10:13:27;9.32;;;2.70;;
33690;SDS011;20026;50.058;18.428;2023-06-01T10:15:53;7.90;;;2.72;;
33690;SDS011;20026;50.058;18.428;2023-06-01T10:18:20;7.28;;;2.95;;
33690;SDS011;20026;50.058;18.428;2023-06-01T10:20:46;6.85;;;2.47;;
33690;SDS011;20026;50.058;18.428;2023-06-01T10:23:13;10.50;;;2.78;;
33690;SDS011;20026;50.058;18.428;2023-06-01T10:25:40;8.23;;;2.17;;
33690;SDS011;20026;50.058;18.428;2023-06-01T10:28:27;7.32;;;4.05;;
33690;SDS011;20026;50.058;18.428;2023-06-01T10:31:34;6.82;;;2.20;;
33690;SDS011;20026;50.058;18.428;2023-06-01T10:34:03;10.23;;;2.00;;
33690;SDS011;20026;50.058;18.428;2023-06-01T10:41:51;7.93;;;3.42;;
33690;SDS011;20026;50.058;18.428;2023-06-01T10:47:03;7.25;;;1.95;;
33690;SDS011;20026;50.058;18.428;2023-06-01T10:52:25;14.93;;;6.22;;
33690;SDS011;20026;50.058;18.428;2023-06-01T10:54:54;4.97;;;2.50;;
33690;SDS011;20026;50.058;18.428;2023-06-01T10:57:24;5.38;;;1.75;;
33690;SDS011;20026;50.058;18.428;2023-06-01T11:02:50;4.28;;;2.15;;
33690;SDS011;20026;50.058;18.428;2023-06-01T11:05:35;29.15;;;3.35;;
33690;SDS011;20026;50.058;18.428;2023-06-01T11:08:05;2.33;;;1.90;;
33690;SDS011;20026;50.058;18.428;2023-06-01T11:13:40;5.90;;;1.88;;
33690;SDS011;20026;50.058;18.428;2023-06-01T11:21:19;2.92;;;1.60;;
33690;SDS011;20026;50.058;18.428;2023-06-01T11:23:50;5.82;;;1.65;;
33690;SDS011;20026;50.058;18.428;2023-06-01T11:26:20;6.50;;;2.40;;
33690;SDS011;20026;50.058;18.428;2023-06-01T11:29:13;5.50;;;1.90;;
33690;SDS011;20026;50.058;18.428;2023-06-01T11:31:49;6.70;;;2.33;;
33690;SDS011;20026;50.058;18.428;2023-06-01T11:34:16;3.65;;;2.03;;
33690;SDS011;20026;50.058;18.428;2023-06-01T11:36:47;9.07;;;2.95;;
33690;SDS011;20026;50.058;18.428;2023-06-01T11:39:32;6.07;;;2.30;;
33690;SDS011;20026;50.058;18.428;2023-06-01T11:42:09;6.45;;;2.20;;
33690;SDS011;20026;50.058;18.428;2023-06-01T11:44:38;9.10;;;2.42;;
33690;SDS011;20026;50.058;18.428;2023-06-01T11:47:09;6.18;;;2.22;;
33690;SDS011;20026;50.058;18.428;2023-06-01T11:49:45;7.72;;;1.95;;
33690;SDS011;20026;50.058;18.428;2023-06-01T11:52:21;8.80;;;2.10;;
33690;SDS011;20026;50.058;18.428;2023-06-01T11:54:47;3.45;;;1.80;;
33690;SDS011;20026;50.058;18.428;2023-06-01T11:57:18;2.97;;;1.80;;
33690;SDS011;20026;50.058;18.428;2023-06-01T11:59:45;3.78;;;1.92;;
33690;SDS011;20026;50.058;18.428;2023-06-01T12:02:18;10.80;;;2.28;;
33690;SDS011;20026;50.058;18.428;2023-06-01T12:04:55;4.53;;;3.70;;
33690;SDS011;20026;50.058;18.428;2023-06-01T12:07:22;9.30;;;4.40;;
33690;SDS011;20026;50.058;18.428;2023-06-01T12:09:49;10.15;;;5.55;;
33690;SDS011;20026;50.058;18.428;2023-06-01T12:12:23;5.07;;;2.30;;
33690;SDS011;20026;50.058;18.428;2023-06-01T12:14:50;7.72;;;2.33;;
33690;SDS011;20026;50.058;18.428;2023-06-01T12:17:17;6.03;;;2.20;;
33690;SDS011;20026;50.058;18.428;2023-06-01T12:19:45;2.78;;;1.88;;
33690;SDS011;20026;50.058;18.428;2023-06-01T12:22:14;4.50;;;2.10;;
33690;SDS011;20026;50.058;18.428;2023-06-01T12:24:43;4.18;;;2.00;;
33690;SDS011;20026;50.058;18.428;2023-06-01T12:27:16;8.25;;;2.17;;
33690;SDS011;20026;50.058;18.428;2023-06-01T12:29:46;5.32;;;1.98;;
33690;SDS011;20026;50.058;18.428;2023-06-01T12:32:15;4.20;;;1.73;;
33690;SDS011;20026;50.058;18.428;2023-06-01T12:34:43;3.57;;;1.50;;
33690;SDS011;20026;50.058;18.428;2023-06-01T12:37:16;4.70;;;1.80;;
33690;SDS011;20026;50.058;18.428;2023-06-01T12:39:43;2.65;;;1.83;;
33690;SDS011;20026;50.058;18.428;2023-06-01T12:42:09;5.03;;;1.85;;
33690;SDS011;20026;50.058;18.428;2023-06-01T12:45:01;2.53;;;1.70;;
33690;SDS011;20026;50.058;18.428;2023-06-01T12:47:34;5.57;;;1.73;;
33690;SDS011;20026;50.058;18.428;2023-06-01T12:50:08;4.22;;;1.80;;
33690;SDS011;20026;50.058;18.428;2023-06-01T12:52:35;5.38;;;1.80;;
33690;SDS011;20026;50.058;18.428;2023-06-01T12:55:01;8.98;;;2.08;;
33690;SDS011;20026;50.058;18.428;2023-06-01T12:57:29;4.10;;;1.90;;
33690;SDS011;20026;50.058;18.428;2023-06-01T12:59:56;3.03;;;1.85;;
33690;SDS011;20026;50.058;18.428;2023-06-01T13:02:23;2.72;;;1.85;;
33690;SDS011;20026;50.058;18.428;2023-06-01T13:04:57;3.80;;;1.90;;
33690;SDS011;20026;50.058;18.428;2023-06-01T13:07:43;4.35;;;1.80;;
33690;SDS011;20026;50.058;18.428;2023-06-01T13:10:10;6.70;;;3.45;;
33690;SDS011;20026;50.058;18.428;2023-06-01T13:12:43;13.82;;;2.03;;
33690;SDS011;20026;50.058;18.428;2023-06-01T13:15:14;6.15;;;2.10;;
33690;SDS011;20026;50.058;18.428;2023-06-01T13:17:41;6.40;;;2.08;;
33690;SDS011;20026;50.058;18.428;2023-06-01T13:20:08;5.82;;;2.33;;
33690;SDS011;20026;50.058;18.428;2023-06-01T13:22:37;5.78;;;3.45;;
33690;SDS011;20026;50.058;18.428;2023-06-01T13:25:04;8.82;;;2.38;;
33690;SDS011;20026;50.058;18.428;2023-06-01T13:27:30;3.97;;;1.85;;
33690;SDS011;20026;50.058;18.428;2023-06-01T13:29:57;4.28;;;1.75;;
33690;SDS011;20026;50.058;18.428;2023-06-01T13:32:23;3.40;;;1.60;;
33690;SDS011;20026;50.058;18.428;2023-06-01T13:35:09;3.67;;;1.75;;
33690;SDS011;20026;50.058;18.428;2023-06-01T13:37:36;2.83;;;1.42;;
33690;SDS011;20026;50.058;18.428;2023-06-01T13:40:03;2.95;;;1.58;;
33690;SDS011;20026;50.058;18.428;2023-06-01T13:42:35;3.67;;;1.38;;
33690;SDS011;20026;50.058;18.428;2023-06-01T13:45:01;3.90;;;1.60;;
33690;SDS011;20026;50.058;18.428;2023-06-01T13:47:28;4.15;;;1.70;;
33690;SDS011;20026;50.058;18.428;2023-06-01T13:49:55;3.17;;;1.60;;
33690;SDS011;20026;50.058;18.428;2023-06-01T13:52:22;3.80;;;2.10;;
33690;SDS011;20026;50.058;18.428;2023-06-01T13:54:51;13.35;;;2.25;;
33690;SDS011;20026;50.058;18.428;2023-06-01T13:57:19;5.33;;;1.70;;
33690;SDS011;20026;50.058;18.428;2023-06-01T13:59:45;3.30;;;1.58;;
33690;SDS011;20026;50.058;18.428;2023-06-01T14:02:12;5.05;;;1.60;;
33690;SDS011;20026;50.058;18.428;2023-06-01T14:04:38;6.35;;;1.80;;
33690;SDS011;20026;50.058;18.428;2023-06-01T14:07:05;5.53;;;2.00;;
33690;SDS011;20026;50.058;18.428;2023-06-01T14:09:32;5.78;;;2.05;;
33690;SDS011;20026;50.058;18.428;2023-06-01T14:12:00;4.63;;;1.48;;
33690;SDS011;20026;50.058;18.428;2023-06-01T14:14:33;3.10;;;1.65;;
33690;SDS011;20026;50.058;18.428;2023-06-01T14:17:19;4.90;;;1.98;;
33690;SDS011;20026;50.058;18.428;2023-06-01T14:19:46;6.63;;;1.95;;
33690;SDS011;20026;50.058;18.428;2023-06-01T14:22:12;4.18;;;1.90;;
33690;SDS011;20026;50.058;18.428;2023-06-01T14:24:40;2.97;;;1.60;;
33690;SDS011;20026;50.058;18.428;2023-06-01T14:27:13;7.30;;;1.77;;
33690;SDS011;20026;50.058;18.428;2023-06-01T14:29:48;4.47;;;1.88;;
33690;SDS011;20026;50.058;18.428;2023-06-01T14:32:28;6.55;;;2.00;;
33690;SDS011;20026;50.058;18.428;2023-06-01T14:34:59;4.95;;;2.08;;
33690;SDS011;20026;50.058;18.428;2023-06-01T14:37:48;3.95;;;1.95;;
33690;SDS011;20026;50.058;18.428;2023-06-01T14:40:14;5.57;;;2.20;;
33690;SDS011;20026;50.058;18.428;2023-06-01T14:42:40;8.85;;;2.47;;
33690;SDS011;20026;50.058;18.428;2023-06-01T14:45:07;6.03;;;2.10;;
33690;SDS011;20026;50.058;18.428;2023-06-01T14:47:33;4.05;;;1.98;;
33690;SDS011;20026;50.058;18.428;2023-06-01T14:49:59;21.90;;;2.95;;
33690;SDS011;20026;50.058;18.428;2023-06-01T14:52:26;13.20;;;2.38;;
33690;SDS011;20026;50.058;18.428;2023-06-01T14:54:52;5.63;;;2.28;;
33690;SDS011;20026;50.058;18.428;2023-06-01T14:57:18;4.90;;;1.80;;
33690;SDS011;20026;50.058;18.428;2023-06-01T14:59:51;6.13;;;2.00;;
33690;SDS011;20026;50.058;18.428;2023-06-01T15:02:41;7.43;;;2.05;;
33690;SDS011;20026;50.058;18.428;2023-06-01T15:05:08;3.42;;;1.70;;
33690;SDS011;20026;50.058;18.428;2023-06-01T15:07:34;5.78;;;2.20;;
33690;SDS011;20026;50.058;18.428;2023-06-01T15:10:00;3.17;;;1.88;;
33690;SDS011;20026;50.058;18.428;2023-06-01T15:12:27;3.95;;;1.98;;
33690;SDS011;20026;50.058;18.428;2023-06-01T15:14:54;4.13;;;2.10;;
33690;SDS011;20026;50.058;18.428;2023-06-01T15:17:20;7.35;;;2.10;;
33690;SDS011;20026;50.058;18.428;2023-06-01T15:19:46;5.50;;;1.92;;
33690;SDS011;20026;50.058;18.428;2023-06-01T15:22:13;3.90;;;1.65;;
33690;SDS011;20026;50.058;18.428;2023-06-01T15:24:39;2.78;;;1.70;;
33690;SDS011;20026;50.058;18.428;2023-06-01T15:27:06;5.47;;;2.05;;
33690;SDS011;20026;50.058;18.428;2023-06-01T15:29:33;6.60;;;2.42;;